Time;durP1;ratioP1;P1;durP2;ratioP2;P2;SDS_P1;SDS_P2;PMS_P1;PMS_P2;Temp;Humidity;BMP_temperature;BMP_pressure;BME280_temperature;BME280_humidity;BME280_pressure;Samples;Min_cycle;Max_cycle;Signal;HPM_P1;HPM_P2
2023/04/17 00:02:14;;;;;;;17.60;9.45;;;12.00;99.20;;;;;;5089748;28;20046;-72
2023/04/17 00:04:40;;;;;;;19.83;10.52;;;12.00;99.20;;;;;;5090437;28;20036;-71
2023/04/17 00:07:06;;;;;;;17.15;9.52;;;12.00;99.20;;;;;;5089903;28;20021;-70
2023/04/17 00:09:32;;;;;;;16.70;8.98;;;12.00;99.10;;;;;;5090486;28;20039;-70
2023/04/17 00:11:58;;;;;;;15.75;9.43;;;12.00;99.10;;;;;;5090547;28;20036;-71
2023/04/17 00:14:24;;;;;;;20.90;9.65;;;11.90;99.10;;;;;;5090333;28;20035;-70
2023/04/17 00:16:51;;;;;;;18.08;10.02;;;11.80;99.10;;;;;;5090442;28;20116;-71
2023/04/17 00:19:16;;;;;;;13.68;9.10;;;11.80;99.10;;;;;;5090822;28;20026;-71
2023/04/17 00:21:42;;;;;;;17.85;9.18;;;11.80;99.00;;;;;;5090473;28;20526;-71
2023/04/17 00:24:08;;;;;;;14.98;9.65;;;11.80;99.10;;;;;;5090133;28;20036;-72
2023/04/17 00:26:34;;;;;;;18.08;10.65;;;11.80;99.10;;;;;;5089956;28;20021;-70
2023/04/17 00:29:02;;;;;;;17.52;9.93;;;11.80;99.10;;;;;;5090290;28;20461;-71
2023/04/17 00:31:28;;;;;;;20.48;9.20;;;11.90;99.10;;;;;;5088899;28;20342;-69
2023/04/17 00:33:54;;;;;;;15.73;9.73;;;11.80;99.00;;;;;;5090862;28;20127;-70
2023/04/17 00:36:20;;;;;;;15.60;9.50;;;11.80;99.10;;;;;;5089219;28;20029;-70
2023/04/17 00:38:45;;;;;;;20.17;9.73;;;11.80;99.10;;;;;;5094327;28;20024;-70
2023/04/17 00:41:11;;;;;;;20.35;9.93;;;11.80;99.20;;;;;;5094216;28;20477;-69
2023/04/17 00:43:37;;;;;;;18.52;10.40;;;11.80;99.20;;;;;;5094130;28;20027;-72
2023/04/17 00:46:04;;;;;;;23.15;10.80;;;11.80;99.10;;;;;;5093494;28;20032;-70
2023/04/17 00:48:32;;;;;;;23.40;10.43;;;11.80;99.10;;;;;;5094264;28;20035;-72
2023/04/17 00:51:01;;;;;;;17.13;8.52;;;11.70;99.00;;;;;;5094067;28;20246;-71
2023/04/17 00:53:31;;;;;;;17.60;10.05;;;11.70;99.00;;;;;;5092803;28;20113;-71
2023/04/17 00:55:58;;;;;;;18.20;10.65;;;11.70;99.10;;;;;;5093782;28;20111;-71
2023/04/17 00:58:24;;;;;;;18.45;9.57;;;11.70;99.20;;;;;;5093871;28;20016;-70
2023/04/17 01:00:51;;;;;;;18.63;10.20;;;11.70;99.20;;;;;;5094199;28;20024;-70
2023/04/17 01:03:16;;;;;;;20.85;10.00;;;11.60;99.10;;;;;;5094056;28;20043;-70
2023/04/17 01:05:48;;;;;;;23.27;10.02;;;11.60;99.10;;;;;;5093655;28;20436;-70
2023/04/17 01:08:14;;;;;;;20.83;10.57;;;11.60;99.10;;;;;;5093706;28;20032;-70
2023/04/17 01:10:40;;;;;;;19.48;10.55;;;11.60;99.20;;;;;;5092619;28;20489;-70
2023/04/17 01:13:07;;;;;;;13.63;8.70;;;11.50;99.10;;;;;;5093988;28;20042;-71
2023/04/17 01:15:34;;;;;;;19.88;9.85;;;11.50;99.30;;;;;;5093634;28;20020;-70
2023/04/17 01:18:00;;;;;;;20.23;10.40;;;11.50;99.20;;;;;;5093392;28;20046;-70
2023/04/17 01:20:29;;;;;;;19.42;10.00;;;11.60;99.30;;;;;;5093427;28;20059;-70
2023/04/17 01:22:56;;;;;;;17.67;9.85;;;11.50;99.20;;;;;;5093453;28;20028;-71
2023/04/17 01:25:21;;;;;;;16.42;9.73;;;11.50;99.50;;;;;;5093347;28;20085;-69
2023/04/17 01:27:47;;;;;;;20.88;10.23;;;11.50;99.30;;;;;;5092670;28;20390;-70
2023/04/17 01:30:13;;;;;;;19.50;10.35;;;11.40;99.20;;;;;;5093286;28;20028;-70
2023/04/17 01:32:39;;;;;;;20.15;9.98;;;11.40;99.20;;;;;;5093202;28;20399;-70
2023/04/17 01:35:08;;;;;;;23.42;10.68;;;11.40;99.30;;;;;;5090712;28;20130;-70
2023/04/17 01:37:34;;;;;;;18.45;9.63;;;11.40;99.30;;;;;;5072640;28;20123;-70
2023/04/17 01:39:59;;;;;;;20.88;10.52;;;11.40;99.30;;;;;;5073347;28;20120;-70
2023/04/17 01:42:25;;;;;;;16.05;9.77;;;11.30;99.30;;;;;;5072920;28;20048;-70
2023/04/17 01:44:52;;;;;;;19.45;10.32;;;11.30;99.30;;;;;;5072977;28;20044;-70
2023/04/17 01:47:18;;;;;;;17.58;9.77;;;11.30;99.40;;;;;;5072478;28;20542;-71
2023/04/17 01:49:43;;;;;;;20.63;9.55;;;11.30;99.30;;;;;;5071531;28;20115;-71
2023/04/17 01:52:09;;;;;;;17.48;10.35;;;11.30;99.30;;;;;;5073110;28;20016;-71
2023/04/17 01:54:34;;;;;;;20.00;10.50;;;11.20;99.40;;;;;;5071435;28;20361;-70
2023/04/17 01:57:01;;;;;;;16.58;10.10;;;11.20;99.40;;;;;;5072508;28;20427;-70
2023/04/17 01:59:27;;;;;;;20.42;10.30;;;11.20;99.40;;;;;;5071383;28;20098;-70
2023/04/17 02:01:53;;;;;;;26.77;13.05;;;11.10;99.30;;;;;;5071209;28;20032;-71
2023/04/17 02:04:19;;;;;;;18.35;10.52;;;11.20;99.40;;;;;;5072311;28;20493;-70
2023/04/17 02:06:45;;;;;;;19.50;11.02;;;11.20;99.40;;;;;;5071830;28;20040;-71
2023/04/17 02:09:11;;;;;;;16.85;10.60;;;11.20;99.40;;;;;;5072274;28;20065;-69
2023/04/17 02:11:36;;;;;;;18.42;10.20;;;11.30;99.40;;;;;;5070986;28;20029;-69
2023/04/17 02:14:02;;;;;;;19.20;9.63;;;11.10;99.30;;;;;;5072170;28;20044;-70
2023/04/17 02:16:28;;;;;;;19.65;9.77;;;11.10;99.30;;;;;;5072199;28;20047;-69
2023/04/17 02:18:54;;;;;;;16.33;9.07;;;11.10;99.30;;;;;;5071616;28;20049;-69
2023/04/17 02:21:20;;;;;;;18.10;10.48;;;11.10;99.30;;;;;;5071007;28;20238;-69
2023/04/17 02:23:46;;;;;;;14.57;8.77;;;11.00;99.30;;;;;;5071901;28;20421;-71
2023/04/17 02:26:12;;;;;;;17.58;10.00;;;11.00;99.40;;;;;;5071729;28;20046;-71
2023/04/17 02:28:38;;;;;;;17.02;9.80;;;11.00;99.40;;;;;;5071868;28;20112;-71
2023/04/17 02:31:07;;;;;;;20.10;10.00;;;11.00;99.40;;;;;;5071141;28;20033;-70
2023/04/17 02:33:36;;;;;;;16.40;9.82;;;11.00;99.50;;;;;;5071896;28;20512;-71
2023/04/17 02:36:03;;;;;;;19.00;10.15;;;11.00;99.40;;;;;;5071920;28;20124;-70
2023/04/17 02:38:29;;;;;;;19.40;10.23;;;11.00;99.40;;;;;;5071947;28;20040;-70
2023/04/17 02:40:55;;;;;;;15.65;9.70;;;10.90;99.40;;;;;;5071674;28;20347;-70
2023/04/17 02:43:21;;;;;;;19.00;9.73;;;10.90;99.40;;;;;;5071546;28;20032;-69
2023/04/17 02:45:47;;;;;;;21.25;10.05;;;10.90;99.50;;;;;;5072310;28;20024;-70
2023/04/17 02:48:12;;;;;;;19.05;10.30;;;10.90;99.60;;;;;;5070537;28;20028;-69
2023/04/17 02:50:38;;;;;;;15.80;9.70;;;10.80;99.50;;;;;;5071276;28;20040;-70
2023/04/17 02:53:04;;;;;;;18.98;10.35;;;10.90;99.50;;;;;;5071394;28;20111;-70
2023/04/17 02:55:29;;;;;;;21.20;10.70;;;10.90;99.40;;;;;;5071315;28;20454;-70
2023/04/17 02:57:55;;;;;;;18.20;9.82;;;11.00;99.40;;;;;;5071769;28;20020;-69
2023/04/17 03:00:21;;;;;;;19.50;10.05;;;10.90;99.40;;;;;;5069812;28;20036;-70
2023/04/17 03:02:47;;;;;;;19.80;10.48;;;10.90;99.40;;;;;;5071343;28;20043;-70
2023/04/17 03:05:14;;;;;;;17.95;10.15;;;10.90;99.40;;;;;;5071223;28;20127;-69
2023/04/17 03:07:40;;;;;;;18.15;9.75;;;10.80;99.50;;;;;;5070102;28;20032;-69
2023/04/17 03:10:07;;;;;;;18.10;9.98;;;10.80;99.50;;;;;;5070474;28;20031;-70
2023/04/17 03:12:33;;;;;;;17.17;10.35;;;10.80;99.40;;;;;;5071706;28;20327;-70
2023/04/17 03:14:59;;;;;;;23.98;10.48;;;10.80;99.40;;;;;;5071309;28;20094;-69
2023/04/17 03:17:25;;;;;;;21.15;10.70;;;10.80;99.50;;;;;;5071034;28;20024;-69
2023/04/17 03:19:51;;;;;;;18.98;10.38;;;10.80;99.40;;;;;;5071210;28;20116;-69
2023/04/17 03:22:17;;;;;;;18.05;10.02;;;10.80;99.50;;;;;;5071336;28;20048;-70
2023/04/17 03:24:42;;;;;;;16.67;9.52;;;10.80;99.60;;;;;;5069584;28;20063;-70
2023/04/17 03:27:08;;;;;;;20.75;10.32;;;10.70;99.40;;;;;;5071038;28;20029;-68
2023/04/17 03:29:34;;;;;;;21.33;9.88;;;10.70;99.50;;;;;;5069601;28;20020;-70
2023/04/17 03:31:59;;;;;;;16.65;9.60;;;10.70;99.50;;;;;;5070592;28;20037;-70
2023/04/17 03:34:25;;;;;;;21.17;10.05;;;10.60;99.50;;;;;;5071011;28;20027;-69
2023/04/17 03:36:51;;;;;;;15.45;9.05;;;10.60;99.50;;;;;;5071374;28;20354;-70
2023/04/17 03:39:17;;;;;;;33.50;10.07;;;10.60;99.60;;;;;;5070618;28;20033;-69
2023/04/17 03:41:42;;;;;;;20.75;9.93;;;10.60;99.60;;;;;;5070559;28;20335;-68
2023/04/17 03:44:08;;;;;;;15.07;9.40;;;10.60;99.50;;;;;;5070388;28;20036;-69
2023/04/17 03:46:34;;;;;;;20.48;10.07;;;10.60;99.50;;;;;;5069324;28;20453;-69
2023/04/17 03:49:00;;;;;;;22.70;10.30;;;10.60;99.50;;;;;;5069874;28;20397;-70
2023/04/17 03:51:26;;;;;;;22.08;10.40;;;10.70;99.50;;;;;;5069461;28;20028;-69
2023/04/17 03:53:52;;;;;;;18.30;10.10;;;10.60;99.40;;;;;;5070745;28;20029;-69
2023/04/17 03:56:18;;;;;;;23.85;10.32;;;10.60;99.40;;;;;;5070371;28;20041;-70
2023/04/17 03:58:43;;;;;;;22.23;10.30;;;10.60;99.40;;;;;;5069004;28;20427;-70
2023/04/17 04:01:09;;;;;;;19.23;10.80;;;10.60;99.40;;;;;;5070855;28;20028;-70
2023/04/17 04:03:38;;;;;;;17.60;9.57;;;10.60;99.40;;;;;;5069213;28;20029;-69
2023/04/17 04:06:04;;;;;;;22.80;10.23;;;10.60;99.30;;;;;;5070301;28;20071;-69
2023/04/17 04:08:29;;;;;;;19.80;10.30;;;10.60;99.30;;;;;;5070584;28;20052;-70
2023/04/17 04:10:55;;;;;;;19.92;10.43;;;10.50;99.30;;;;;;5068660;28;20033;-69
2023/04/17 04:13:21;;;;;;;20.17;9.05;;;10.50;99.30;;;;;;5069898;28;20033;-69
2023/04/17 04:15:46;;;;;;;22.33;10.77;;;10.50;99.30;;;;;;5069625;28;20028;-70
2023/04/17 04:18:12;;;;;;;22.98;9.73;;;10.50;99.30;;;;;;5070167;28;20106;-70
2023/04/17 04:20:38;;;;;;;22.90;10.32;;;10.50;99.30;;;;;;5070348;28;20512;-70
2023/04/17 04:23:03;;;;;;;20.70;10.43;;;10.50;99.40;;;;;;5070169;28;20033;-70
2023/04/17 04:25:29;;;;;;;18.42;10.15;;;10.50;99.40;;;;;;5070168;28;20418;-69
2023/04/17 04:27:55;;;;;;;17.63;9.75;;;10.50;99.40;;;;;;5070459;28;20074;-70
2023/04/17 04:30:24;;;;;;;22.83;10.05;;;10.60;99.40;;;;;;5069027;28;20044;-70
2023/04/17 04:32:50;;;;;;;18.65;9.35;;;10.40;99.30;;;;;;5069837;28;20048;-69
2023/04/17 04:35:16;;;;;;;20.58;9.93;;;10.50;99.30;;;;;;5069660;28;20362;-71
2023/04/17 04:37:45;;;;;;;25.55;10.82;;;10.40;99.20;;;;;;5070013;28;20033;-70
2023/04/17 04:40:14;;;;;;;24.13;11.60;;;10.50;99.40;;;;;;5070412;28;20338;-69
2023/04/17 04:42:48;;;;;;;19.45;10.13;;;10.40;99.30;;;;;;5070089;28;20079;-69
2023/04/17 04:45:15;;;;;;;20.30;10.52;;;10.50;99.40;;;;;;5070249;28;20047;-71
2023/04/17 04:47:41;;;;;;;20.38;10.68;;;10.40;99.40;;;;;;5069962;28;20066;-70
2023/04/17 04:50:07;;;;;;;20.42;11.43;;;10.40;99.50;;;;;;5069016;28;20120;-68
2023/04/17 04:52:33;;;;;;;21.63;10.05;;;10.40;99.30;;;;;;5069686;28;20036;-69
2023/04/17 04:55:00;;;;;;;20.77;11.10;;;10.40;99.30;;;;;;5070269;28;20028;-69
2023/04/17 04:57:26;;;;;;;20.10;10.70;;;10.50;99.50;;;;;;5069953;28;20387;-69
2023/04/17 04:59:51;;;;;;;22.98;10.57;;;10.40;99.40;;;;;;5069775;28;20494;-71
2023/04/17 05:02:17;;;;;;;21.60;10.20;;;10.40;99.40;;;;;;5069502;28;20138;-69
2023/04/17 05:04:43;;;;;;;20.75;10.50;;;10.50;99.50;;;;;;5069475;28;20120;-69
2023/04/17 05:07:09;;;;;;;27.52;10.70;;;10.50;99.50;;;;;;5070234;28;20035;-70
2023/04/17 05:09:35;;;;;;;20.75;10.02;;;10.40;99.50;;;;;;5069821;28;20036;-69
2023/04/17 05:12:00;;;;;;;26.05;11.65;;;10.40;99.60;;;;;;5069796;28;20097;-69
2023/04/17 05:14:26;;;;;;;27.33;10.70;;;10.40;99.50;;;;;;5069687;28;20111;-70
2023/04/17 05:16:54;;;;;;;20.48;10.93;;;10.50;99.60;;;;;;5068759;28;20043;-68
2023/04/17 05:19:20;;;;;;;17.23;10.02;;;10.40;99.40;;;;;;5069793;28;20148;-67
2023/04/17 05:21:45;;;;;;;18.20;10.43;;;10.40;99.50;;;;;;5069409;28;20115;-69
2023/04/17 05:24:11;;;;;;;24.85;11.60;;;10.50;99.50;;;;;;5071025;28;20050;-69
2023/04/17 05:26:37;;;;;;;20.40;9.80;;;10.40;99.40;;;;;;5072279;28;20040;-69
2023/04/17 05:29:02;;;;;;;23.38;10.95;;;10.50;99.60;;;;;;5072088;28;20043;-69
2023/04/17 05:31:28;;;;;;;23.02;10.60;;;10.50;99.50;;;;;;5072608;28;20044;-69
2023/04/17 05:33:54;;;;;;;19.75;10.20;;;10.50;99.50;;;;;;5073564;28;20097;-68
2023/04/17 05:36:21;;;;;;;24.92;10.88;;;10.50;99.40;;;;;;5073292;28;20473;-68
2023/04/17 05:38:47;;;;;;;21.67;10.75;;;10.40;99.40;;;;;;5072834;28;20033;-70
2023/04/17 05:41:13;;;;;;;25.88;11.07;;;10.50;99.40;;;;;;5072791;28;20036;-69
2023/04/17 05:43:39;;;;;;;22.13;11.15;;;10.50;99.40;;;;;;5072746;28;20051;-69
2023/04/17 05:46:05;;;;;;;20.58;10.52;;;10.50;99.40;;;;;;5072234;28;20052;-70
2023/04/17 05:48:31;;;;;;;22.75;11.15;;;10.40;99.30;;;;;;5072374;28;20063;-69
2023/04/17 05:50:56;;;;;;;21.50;10.45;;;10.40;99.30;;;;;;5072538;28;20301;-69
2023/04/17 05:53:22;;;;;;;19.90;9.63;;;10.50;99.50;;;;;;5072493;28;20320;-69
2023/04/17 05:55:48;;;;;;;23.55;11.05;;;10.50;99.40;;;;;;5072492;28;20036;-69
2023/04/17 05:58:14;;;;;;;21.77;11.07;;;10.50;99.40;;;;;;5072826;28;20138;-69
2023/04/17 06:00:41;;;;;;;23.60;10.95;;;10.60;99.50;;;;;;5072149;28;20466;-69
2023/04/17 06:03:06;;;;;;;21.98;11.25;;;10.60;99.40;;;;;;5072505;28;20122;-68
2023/04/17 06:05:32;;;;;;;19.63;10.18;;;10.70;99.30;;;;;;5072399;28;20074;-72
2023/04/17 06:07:59;;;;;;;15.55;9.55;;;10.70;99.30;;;;;;5072529;28;20343;-71
2023/04/17 06:10:25;;;;;;;22.02;10.32;;;10.70;99.20;;;;;;5071062;28;20051;-70
2023/04/17 06:12:51;;;;;;;19.23;9.63;;;10.80;99.00;;;;;;5071577;28;20028;-71
2023/04/17 06:15:17;;;;;;;22.42;9.82;;;10.80;98.90;;;;;;5072113;28;20358;-71
2023/04/17 06:17:42;;;;;;;19.55;10.52;;;10.80;98.90;;;;;;5072127;28;20438;-70
2023/04/17 06:20:10;;;;;;;19.77;10.30;;;11.00;99.00;;;;;;5072306;28;20039;-69
2023/04/17 06:22:39;;;;;;;23.90;10.80;;;10.90;98.90;;;;;;5073528;28;20117;-70
2023/04/17 06:25:06;;;;;;;20.35;10.15;;;11.00;98.80;;;;;;5072087;28;20024;-70
2023/04/17 06:27:32;;;;;;;30.80;12.35;;;11.10;98.80;;;;;;5071392;28;20466;-72
2023/04/17 06:29:58;;;;;;;27.30;11.30;;;11.20;98.70;;;;;;5070612;28;20066;-70
2023/04/17 06:32:24;;;;;;;16.38;9.85;;;11.20;98.60;;;;;;5071859;28;20037;-74
2023/04/17 06:34:50;;;;;;;17.38;10.43;;;11.10;98.50;;;;;;5069844;28;20040;-70
2023/04/17 06:37:15;;;;;;;19.35;10.13;;;11.10;98.50;;;;;;5071744;28;20074;-73
2023/04/17 06:39:41;;;;;;;19.27;10.48;;;11.20;98.40;;;;;;5071364;28;20028;-72
2023/04/17 06:42:07;;;;;;;17.00;9.73;;;11.20;98.40;;;;;;5071548;28;20035;-71
2023/04/17 06:44:32;;;;;;;19.38;10.73;;;11.30;98.30;;;;;;5071211;28;20090;-71
2023/04/17 06:47:02;;;;;;;22.25;9.95;;;11.30;98.20;;;;;;5071639;28;20033;-71
2023/04/17 06:49:30;;;;;;;18.42;10.23;;;11.60;98.30;;;;;;5071357;28;20462;-72
2023/04/17 06:51:57;;;;;;;20.65;10.02;;;11.50;98.10;;;;;;5071568;28;20020;-71
2023/04/17 06:54:23;;;;;;;21.55;9.98;;;11.60;97.90;;;;;;5070002;28;20029;-71
2023/04/17 06:56:49;;;;;;;18.35;10.60;;;11.60;97.70;;;;;;5071340;28;20037;-72
2023/04/17 06:59:15;;;;;;;18.65;9.57;;;11.70;97.80;;;;;;5069922;28;20614;-72
2023/04/17 07:01:41;;;;;;;19.40;9.50;;;11.80;97.60;;;;;;5071016;28;20057;-73
2023/04/17 07:04:08;;;;;;;20.20;11.05;;;11.90;97.40;;;;;;5071348;28;20058;-72
2023/04/17 07:06:35;;;;;;;18.77;9.85;;;12.00;97.30;;;;;;5071294;28;20089;-71
2023/04/17 07:09:01;;;;;;;23.08;10.27;;;12.10;97.30;;;;;;5069869;28;20035;-71
2023/04/17 07:11:27;;;;;;;21.08;9.93;;;12.20;97.10;;;;;;5069662;28;20033;-73
2023/04/17 07:13:52;;;;;;;23.05;10.10;;;12.30;96.90;;;;;;5071084;28;20051;-72
2023/04/17 07:16:20;;;;;;;24.15;9.48;;;12.40;96.60;;;;;;5071417;28;20555;-72
2023/04/17 07:18:45;;;;;;;28.17;10.73;;;12.70;96.50;;;;;;5069569;28;20075;-73
2023/04/17 07:21:11;;;;;;;21.30;10.25;;;12.50;96.20;;;;;;5071217;28;20087;-72
2023/04/17 07:23:37;;;;;;;23.02;10.00;;;12.80;96.30;;;;;;5069569;28;20052;-75
2023/04/17 07:26:02;;;;;;;17.08;9.23;;;12.90;96.10;;;;;;5070633;28;20046;-71
2023/04/17 07:28:31;;;;;;;17.63;9.60;;;12.90;95.70;;;;;;5070903;28;20090;-72
2023/04/17 07:30:56;;;;;;;19.13;9.32;;;13.10;95.30;;;;;;5071044;28;20083;-70
2023/04/17 07:33:23;;;;;;;17.55;9.05;;;13.20;95.10;;;;;;5070867;28;20041;-71
2023/04/17 07:35:48;;;;;;;15.98;9.02;;;13.30;94.70;;;;;;5070583;28;20044;-71
2023/04/17 07:38:14;;;;;;;15.38;9.00;;;13.20;94.50;;;;;;5069475;28;20039;-71
2023/04/17 07:40:40;;;;;;;16.55;9.25;;;13.40;94.70;;;;;;5070403;28;20036;-72
2023/04/17 07:43:06;;;;;;;21.08;9.10;;;13.50;94.20;;;;;;5070080;28;20140;-70
2023/04/17 07:45:32;;;;;;;22.63;9.40;;;13.70;93.90;;;;;;5070413;28;20040;-70
2023/04/17 07:47:58;;;;;;;17.48;9.05;;;13.70;93.60;;;;;;5069258;28;20037;-70
2023/04/17 07:50:23;;;;;;;13.77;8.23;;;13.80;93.30;;;;;;5070269;28;20097;-71
2023/04/17 07:52:49;;;;;;;15.10;8.52;;;14.00;93.30;;;;;;5070309;28;20043;-70
2023/04/17 07:55:15;;;;;;;16.48;8.27;;;14.00;93.00;;;;;;5070624;28;20466;-70
2023/04/17 07:57:42;;;;;;;12.95;8.18;;;14.00;92.70;;;;;;5070302;28;20028;-70
2023/04/17 08:00:15;;;;;;;17.10;8.68;;;14.00;92.70;;;;;;5070101;28;20193;-69
2023/04/17 08:02:41;;;;;;;16.30;7.95;;;14.20;92.60;;;;;;5070135;28;20622;-69
2023/04/17 08:05:08;;;;;;;14.23;8.75;;;14.30;92.20;;;;;;5069180;28;20036;-70
2023/04/17 08:07:34;;;;;;;13.65;7.38;;;14.40;92.30;;;;;;5069226;28;20035;-70
2023/04/17 08:10:00;;;;;;;13.57;7.88;;;14.90;92.10;;;;;;5070570;28;20031;-69
2023/04/17 08:12:25;;;;;;;17.02;8.77;;;15.70;91.50;;;;;;5070200;28;20036;-69
2023/04/17 08:14:51;;;;;;;18.52;9.70;;;16.50;90.60;;;;;;5070151;28;20037;-71
2023/04/17 08:17:21;;;;;;;17.63;8.50;;;17.40;90.30;;;;;;5070240;28;20031;-70
2023/04/17 08:19:49;;;;;;;16.38;8.43;;;18.20;88.70;;;;;;5070041;28;20021;-71
2023/04/17 08:22:15;;;;;;;;;;;19.40;85.90;;;;;;5071102;28;20032;-71
2023/04/17 08:24:41;;;;;;;15.10;8.27;;;20.30;83.30;;;;;;5070036;28;19974;-70
2023/04/17 08:27:07;;;;;;;16.23;7.72;;;20.90;80.00;;;;;;5070447;28;20039;-71
2023/04/17 08:29:32;;;;;;;15.02;8.15;;;20.90;76.50;;;;;;5068866;28;20017;-69
2023/04/17 08:31:58;;;;;;;14.68;8.27;;;21.40;77.30;;;;;;5069400;28;20119;-70
2023/04/17 08:34:24;;;;;;;13.85;7.28;;;21.80;76.20;;;;;;5069922;28;20029;-70
2023/04/17 08:36:50;;;;;;;15.77;7.70;;;21.60;74.20;;;;;;5071019;28;20017;-71
2023/04/17 08:39:15;;;;;;;16.75;7.93;;;21.40;72.60;;;;;;5070152;28;20033;-69
2023/04/17 08:41:51;;;;;;;13.25;7.50;;;21.20;73.30;;;;;;5068986;28;20040;-71
2023/04/17 08:44:19;;;;;;;14.57;7.90;;;21.10;72.90;;;;;;5068605;28;20466;-71
2023/04/17 08:46:45;;;;;;;16.05;8.77;;;21.00;72.40;;;;;;5070233;28;20025;-70
2023/04/17 08:49:11;;;;;;;16.42;8.32;;;21.20;72.50;;;;;;5071171;28;20468;-70
2023/04/17 08:51:37;;;;;;;14.57;8.35;;;21.40;72.10;;;;;;5070563;28;20051;-70
2023/04/17 08:54:02;;;;;;;15.07;7.15;;;21.60;71.40;;;;;;5069841;28;20115;-69
2023/04/17 08:56:28;;;;;;;20.42;9.60;;;21.70;69.00;;;;;;5070347;28;20071;-71
2023/04/17 08:58:54;;;;;;;16.73;8.32;;;22.00;69.20;;;;;;5073173;28;20108;-74
2023/04/17 09:01:20;;;;;;;15.43;8.07;;;21.90;68.20;;;;;;5073764;28;20178;-73
2023/04/17 09:03:47;;;;;;;13.23;7.65;;;21.80;67.60;;;;;;5073915;28;20021;-72
2023/04/17 09:06:14;;;;;;;13.03;9.10;;;21.80;66.90;;;;;;5072518;28;20036;-72
2023/04/17 09:08:58;;;;;;;15.02;7.82;;;21.80;66.80;;;;;;5073256;28;20048;-72
2023/04/17 09:11:25;;;;;;;22.38;8.75;;;21.70;66.60;;;;;;5072296;28;20059;-73
2023/04/17 09:13:51;;;;;;;12.27;7.90;;;21.90;65.90;;;;;;5073945;28;20047;-73
2023/04/17 09:16:20;;;;;;;12.70;7.72;;;22.10;65.90;;;;;;5073853;28;20031;-73
2023/04/17 09:18:47;;;;;;;10.45;7.25;;;22.30;66.20;;;;;;5073867;28;20464;-73
2023/04/17 09:21:15;;;;;;;12.10;7.38;;;22.70;66.70;;;;;;5073301;28;20127;-74
2023/04/17 09:23:55;;;;;;;13.00;7.55;;;22.90;65.90;;;;;;5073341;28;20040;-72
2023/04/17 09:26:30;;;;;;;13.43;7.40;;;23.50;63.10;;;;;;5072479;28;20033;-73
2023/04/17 09:29:10;;;;;;;13.73;6.95;;;24.20;61.70;;;;;;5073082;28;20119;-72
2023/04/17 09:31:37;;;;;;;18.15;7.20;;;25.20;58.50;;;;;;5072170;28;20080;-72
2023/04/17 09:34:12;;;;;;;14.23;7.28;;;25.60;57.50;;;;;;5072600;28;20033;-73
2023/04/17 09:36:40;;;;;;;10.00;7.13;;;24.90;56.80;;;;;;5072959;28;20029;-69
2023/04/17 09:39:22;;;;;;;13.52;6.82;;;24.10;57.20;;;;;;5073118;28;20035;-71
2023/04/17 09:41:49;;;;;;;15.18;6.90;;;23.40;56.60;;;;;;5071669;28;20064;-70
2023/04/17 09:44:26;;;;;;;10.57;5.97;;;22.90;56.20;;;;;;5072769;28;20435;-71
2023/04/17 09:46:53;;;;;;;9.25;6.30;;;23.00;56.80;;;;;;5071387;28;20031;-71
2023/04/17 09:49:35;;;;;;;10.32;6.03;;;22.90;55.20;;;;;;5073070;28;20030;-70
2023/04/17 09:52:03;;;;;;;10.85;5.90;;;22.30;54.80;;;;;;5071595;28;20024;-70
2023/04/17 09:54:30;;;;;;;9.75;5.75;;;22.10;56.50;;;;;;5071466;28;20043;-71
2023/04/17 09:57:02;;;;;;;16.95;6.70;;;21.70;56.30;;;;;;5072398;28;20103;-72
2023/04/17 09:59:29;;;;;;;10.45;6.57;;;21.50;56.80;;;;;;5072561;28;20642;-73
2023/04/17 10:01:55;;;;;;;11.07;6.70;;;21.60;57.50;;;;;;5072594;28;20056;-72
2023/04/17 10:04:21;;;;;;;12.10;6.45;;;21.50;57.30;;;;;;5072567;28;20020;-73
2023/04/17 10:06:49;;;;;;;12.43;4.90;;;21.30;56.70;;;;;;5071657;28;20032;-72
2023/04/17 10:09:14;;;;;;;9.95;6.13;;;20.70;55.80;;;;;;5071542;28;20035;-74
2023/04/17 10:11:43;;;;;;;12.63;5.82;;;20.50;57.10;;;;;;5077380;28;20024;-73
2023/04/17 10:14:31;;;;;;;10.20;6.43;;;20.40;56.20;;;;;;5072385;28;20074;-74
2023/04/17 10:16:57;;;;;;;13.02;6.55;;;20.30;56.40;;;;;;5071393;28;20028;-73
2023/04/17 10:19:37;;;;;;;13.30;6.00;;;20.30;56.30;;;;;;5072372;28;20021;-72
2023/04/17 10:22:16;;;;;;;13.65;5.95;;;20.70;56.90;;;;;;5072672;28;20024;-72
2023/04/17 10:24:43;;;;;;;9.75;5.53;;;21.50;57.20;;;;;;5071984;28;20116;-72
2023/04/17 10:27:32;;;;;;;9.23;5.65;;;22.00;55.10;;;;;;5070801;28;20064;-71
2023/04/17 10:30:02;;;;;;;15.02;7.22;;;22.40;54.50;;;;;;5065469;28;20033;-72
2023/04/17 10:32:29;;;;;;;14.27;5.32;;;22.50;54.60;;;;;;5071063;28;20037;-70
2023/04/17 10:34:56;;;;;;;10.32;5.95;;;22.50;54.90;;;;;;5071020;28;20377;-69
2023/04/17 10:38:02;;;;;;;12.80;6.30;;;22.40;54.40;;;;;;5071545;28;20284;-72
2023/04/17 10:40:33;;;;;;;18.63;6.60;;;22.20;54.80;;;;;;5070026;28;20141;-71
2023/04/17 10:43:12;;;;;;;14.15;6.07;;;22.00;55.20;;;;;;5073057;28;20021;-71
2023/04/17 10:46:10;;;;;;;15.65;7.35;;;22.20;55.50;;;;;;5072535;28;20479;-72
2023/04/17 10:48:39;;;;;;;12.63;7.35;;;22.10;54.60;;;;;;5071389;28;20485;-72
2023/04/17 10:51:20;;;;;;;9.15;5.45;;;21.90;54.60;;;;;;5071574;28;20414;-74
2023/04/17 10:53:56;;;;;;;10.77;5.15;;;21.50;54.80;;;;;;5071801;28;20038;-70
2023/04/17 10:56:26;;;;;;;11.80;5.88;;;21.30;55.30;;;;;;5071177;28;20115;-70
2023/04/17 10:58:58;;;;;;;15.82;6.20;;;21.00;55.30;;;;;;5071956;28;20024;-73
2023/04/17 11:01:27;;;;;;;12.20;4.90;;;21.00;56.10;;;;;;5071456;28;20025;-73
2023/04/17 11:03:53;;;;;;;8.68;5.13;;;20.90;55.50;;;;;;5071779;28;20044;-71
2023/04/17 11:06:19;;;;;;;16.13;6.25;;;20.90;55.70;;;;;;5070707;28;20041;-73
2023/04/17 11:08:47;;;;;;;8.57;4.65;;;21.00;55.90;;;;;;5071790;28;20032;-73
2023/04/17 11:11:14;;;;;;;;;;;21.00;55.20;;;;;;5072897;28;20174;-73
2023/04/17 11:13:45;;;;;;;9.20;4.93;;;21.00;55.20;;;;;;5071762;28;19919;-72
2023/04/17 11:16:11;;;;;;;9.10;4.65;;;21.00;55.50;;;;;;5070990;28;20031;-73
2023/04/17 11:18:37;;;;;;;11.75;5.88;;;20.70;55.70;;;;;;5071168;28;20050;-70
2023/04/17 11:21:03;;;;;;;10.27;5.20;;;20.60;55.80;;;;;;5070386;28;20021;-72
2023/04/17 11:23:33;;;;;;;9.23;4.68;;;20.50;55.40;;;;;;5071174;28;20048;-71
2023/04/17 11:25:59;;;;;;;11.77;5.53;;;20.40;55.50;;;;;;5073309;28;20129;-72
2023/04/17 11:28:24;;;;;;;11.23;5.30;;;20.30;55.90;;;;;;5071112;28;20024;-71
2023/04/17 11:30:51;;;;;;;12.55;5.22;;;20.00;55.80;;;;;;5072364;28;20035;-73
2023/04/17 11:33:17;;;;;;;13.27;5.78;;;19.70;56.20;;;;;;5070738;28;20276;-72
2023/04/17 11:35:42;;;;;;;8.88;4.97;;;19.50;56.70;;;;;;5071352;28;20119;-71
2023/04/17 11:38:21;;;;;;;10.02;5.05;;;19.30;57.00;;;;;;5070921;28;20149;-71
2023/04/17 11:40:53;;;;;;;10.52;5.35;;;19.40;57.30;;;;;;5070789;28;20028;-71
2023/04/17 11:43:21;;;;;;;12.57;5.45;;;19.60;57.40;;;;;;5070999;28;20032;-73
2023/04/17 11:45:50;;;;;;;;;;;19.40;57.70;;;;;;5070156;28;20036;-74
2023/04/17 11:48:21;;;;;;;10.70;4.97;;;19.40;57.80;;;;;;5071811;28;19912;-74
2023/04/17 11:50:47;;;;;;;13.57;5.65;;;19.30;57.70;;;;;;5071673;28;20043;-74
2023/04/17 11:53:16;;;;;;;9.52;4.95;;;19.10;57.80;;;;;;5069424;28;20028;-73
2023/04/17 11:55:43;;;;;;;11.00;4.85;;;19.20;59.40;;;;;;5070760;28;20132;-72
2023/04/17 11:58:10;;;;;;;13.40;6.88;;;19.30;60.00;;;;;;5071736;28;20024;-72
2023/04/17 12:00:37;;;;;;;14.00;5.97;;;19.20;59.90;;;;;;5069744;28;20484;-76
2023/04/17 12:03:33;;;;;;;10.23;4.90;;;19.40;59.40;;;;;;5070950;28;20112;-72
2023/04/17 12:06:03;;;;;;;7.47;4.97;;;19.30;58.80;;;;;;5070851;28;20355;-71
2023/04/17 12:08:30;;;;;;;13.05;5.57;;;19.20;58.50;;;;;;5070101;28;20032;-70
2023/04/17 12:10:57;;;;;;;12.18;5.45;;;19.00;58.60;;;;;;5069887;28;20033;-70
2023/04/17 12:13:23;;;;;;;7.20;4.60;;;18.90;58.20;;;;;;5070315;28;20021;-72
2023/04/17 12:15:49;;;;;;;10.82;4.80;;;19.00;59.10;;;;;;5071116;28;20086;-71
2023/04/17 12:18:15;;;;;;;8.73;5.07;;;19.10;59.20;;;;;;5070305;28;20036;-70
2023/04/17 12:20:41;;;;;;;15.13;4.45;;;19.10;59.20;;;;;;5070146;28;20029;-70
2023/04/17 12:23:07;;;;;;;10.15;4.93;;;19.10;59.80;;;;;;5069959;28;20036;-71
2023/04/17 12:25:33;;;;;;;9.35;4.88;;;19.00;59.00;;;;;;5069760;28;20024;-71
2023/04/17 12:27:59;;;;;;;8.32;5.00;;;18.90;59.10;;;;;;5069310;28;20020;-71
2023/04/17 12:30:26;;;;;;;8.38;5.00;;;18.70;59.30;;;;;;5069918;28;20032;-72
2023/04/17 12:32:52;;;;;;;9.43;5.18;;;18.70;59.70;;;;;;5069521;28;20059;-71
2023/04/17 12:35:19;;;;;;;9.73;5.07;;;18.70;60.00;;;;;;5073869;28;20036;-70
2023/04/17 12:37:50;;;;;;;11.00;5.32;;;18.80;60.40;;;;;;5073881;28;20035;-71